sensor_id;sensor_type;location;lat;lon;timestamp;P1;durP1;ratioP1;P2;durP2;ratioP2
63444;SDS011;49573;47.682;9.170;2024-02-16T00:02:27;9.95;;;6.25;;
63444;SDS011;49573;47.682;9.170;2024-02-16T00:05:13;9.73;;;6.32;;
63444;SDS011;49573;47.682;9.170;2024-02-16T00:07:59;11.43;;;6.93;;
63444;SDS011;49573;47.682;9.170;2024-02-16T00:10:45;11.38;;;6.43;;
63444;SDS011;49573;47.682;9.170;2024-02-16T00:13:32;10.90;;;6.50;;
63444;SDS011;49573;47.682;9.170;2024-02-16T00:16:18;10.23;;;6.60;;
63444;SDS011;49573;47.682;9.170;2024-02-16T00:19:04;10.50;;;6.90;;
63444;SDS011;49573;47.682;9.170;2024-02-16T00:21:50;9.35;;;6.68;;
63444;SDS011;49573;47.682;9.170;2024-02-16T00:24:36;10.60;;;6.70;;
63444;SDS011;49573;47.682;9.170;2024-02-16T00:27:22;10.40;;;6.60;;
63444;SDS011;49573;47.682;9.170;2024-02-16T00:30:10;10.35;;;7.07;;
63444;SDS011;49573;47.682;9.170;2024-02-16T00:32:57;11.32;;;6.30;;
63444;SDS011;49573;47.682;9.170;2024-02-16T00:35:43;10.13;;;6.80;;
63444;SDS011;49573;47.682;9.170;2024-02-16T00:38:29;9.75;;;6.18;;
63444;SDS011;49573;47.682;9.170;2024-02-16T00:41:18;12.57;;;7.10;;
63444;SDS011;49573;47.682;9.170;2024-02-16T00:44:05;11.95;;;6.70;;
63444;SDS011;49573;47.682;9.170;2024-02-16T00:46:52;10.07;;;6.28;;
63444;SDS011;49573;47.682;9.170;2024-02-16T00:49:38;9.15;;;6.05;;
63444;SDS011;49573;47.682;9.170;2024-02-16T00:52:24;10.35;;;6.13;;
63444;SDS011;49573;47.682;9.170;2024-02-16T00:55:11;9.82;;;5.43;;
63444;SDS011;49573;47.682;9.170;2024-02-16T00:57:58;11.98;;;5.60;;
63444;SDS011;49573;47.682;9.170;2024-02-16T01:00:44;7.80;;;5.05;;
63444;SDS011;49573;47.682;9.170;2024-02-16T01:03:31;8.95;;;5.13;;
63444;SDS011;49573;47.682;9.170;2024-02-16T01:06:17;8.20;;;5.07;;
63444;SDS011;49573;47.682;9.170;2024-02-16T01:09:03;9.23;;;5.00;;
63444;SDS011;49573;47.682;9.170;2024-02-16T01:11:49;8.25;;;4.72;;
63444;SDS011;49573;47.682;9.170;2024-02-16T01:14:35;8.57;;;5.40;;
63444;SDS011;49573;47.682;9.170;2024-02-16T01:17:22;10.55;;;5.03;;
63444;SDS011;49573;47.682;9.170;2024-02-16T01:20:10;9.07;;;5.95;;
63444;SDS011;49573;47.682;9.170;2024-02-16T01:22:56;10.63;;;5.93;;
63444;SDS011;49573;47.682;9.170;2024-02-16T01:25:42;8.93;;;5.70;;
63444;SDS011;49573;47.682;9.170;2024-02-16T01:28:28;8.75;;;5.60;;
63444;SDS011;49573;47.682;9.170;2024-02-16T01:31:15;8.85;;;5.57;;
63444;SDS011;49573;47.682;9.170;2024-02-16T01:34:01;12.27;;;5.88;;
63444;SDS011;49573;47.682;9.170;2024-02-16T01:36:48;9.32;;;6.43;;
63444;SDS011;49573;47.682;9.170;2024-02-16T01:39:34;10.48;;;6.18;;
63444;SDS011;49573;47.682;9.170;2024-02-16T01:42:20;12.73;;;6.78;;
63444;SDS011;49573;47.682;9.170;2024-02-16T01:45:07;11.23;;;6.82;;
63444;SDS011;49573;47.682;9.170;2024-02-16T01:47:54;9.70;;;6.40;;
63444;SDS011;49573;47.682;9.170;2024-02-16T01:50:41;11.15;;;7.00;;
63444;SDS011;49573;47.682;9.170;2024-02-16T01:53:29;9.63;;;6.28;;
63444;SDS011;49573;47.682;9.170;2024-02-16T01:56:16;11.50;;;6.13;;
63444;SDS011;49573;47.682;9.170;2024-02-16T01:59:06;10.02;;;6.80;;
63444;SDS011;49573;47.682;9.170;2024-02-16T02:01:52;10.15;;;6.43;;
63444;SDS011;49573;47.682;9.170;2024-02-16T02:04:38;10.60;;;6.60;;
63444;SDS011;49573;47.682;9.170;2024-02-16T02:07:24;10.13;;;6.63;;
63444;SDS011;49573;47.682;9.170;2024-02-16T02:10:13;10.68;;;6.72;;
63444;SDS011;49573;47.682;9.170;2024-02-16T02:13:00;10.65;;;6.57;;
63444;SDS011;49573;47.682;9.170;2024-02-16T02:15:46;10.23;;;6.53;;
63444;SDS011;49573;47.682;9.170;2024-02-16T02:18:32;10.40;;;7.23;;
63444;SDS011;49573;47.682;9.170;2024-02-16T02:21:18;11.48;;;6.43;;
63444;SDS011;49573;47.682;9.170;2024-02-16T02:24:06;10.63;;;6.65;;
63444;SDS011;49573;47.682;9.170;2024-02-16T02:26:52;9.18;;;6.80;;
63444;SDS011;49573;47.682;9.170;2024-02-16T02:29:38;10.45;;;7.00;;
63444;SDS011;49573;47.682;9.170;2024-02-16T02:32:25;12.30;;;8.00;;
63444;SDS011;49573;47.682;9.170;2024-02-16T02:35:11;9.02;;;6.55;;
63444;SDS011;49573;47.682;9.170;2024-02-16T02:37:59;9.68;;;6.75;;
63444;SDS011;49573;47.682;9.170;2024-02-16T02:40:46;11.02;;;7.13;;
63444;SDS011;49573;47.682;9.170;2024-02-16T02:43:32;11.80;;;6.65;;
63444;SDS011;49573;47.682;9.170;2024-02-16T02:46:18;10.27;;;6.40;;
63444;SDS011;49573;47.682;9.170;2024-02-16T02:49:05;11.68;;;6.93;;
63444;SDS011;49573;47.682;9.170;2024-02-16T02:51:51;10.70;;;7.28;;
63444;SDS011;49573;47.682;9.170;2024-02-16T02:54:37;10.02;;;6.45;;
63444;SDS011;49573;47.682;9.170;2024-02-16T02:57:24;8.65;;;6.38;;
63444;SDS011;49573;47.682;9.170;2024-02-16T03:00:10;10.52;;;6.72;;
63444;SDS011;49573;47.682;9.170;2024-02-16T03:02:57;13.52;;;7.20;;
63444;SDS011;49573;47.682;9.170;2024-02-16T03:05:43;11.00;;;7.00;;
63444;SDS011;49573;47.682;9.170;2024-02-16T03:08:29;9.77;;;6.43;;
63444;SDS011;49573;47.682;9.170;2024-02-16T03:11:16;11.60;;;6.78;;
63444;SDS011;49573;47.682;9.170;2024-02-16T03:14:03;9.48;;;6.43;;
63444;SDS011;49573;47.682;9.170;2024-02-16T03:16:50;8.50;;;6.13;;
63444;SDS011;49573;47.682;9.170;2024-02-16T03:19:36;10.68;;;5.82;;
63444;SDS011;49573;47.682;9.170;2024-02-16T03:22:22;11.20;;;6.57;;
63444;SDS011;49573;47.682;9.170;2024-02-16T03:25:08;10.38;;;6.47;;
63444;SDS011;49573;47.682;9.170;2024-02-16T03:27:54;8.93;;;6.22;;
63444;SDS011;49573;47.682;9.170;2024-02-16T03:30:43;10.38;;;6.47;;
63444;SDS011;49573;47.682;9.170;2024-02-16T03:33:29;10.23;;;6.47;;
63444;SDS011;49573;47.682;9.170;2024-02-16T03:36:15;9.85;;;6.85;;
63444;SDS011;49573;47.682;9.170;2024-02-16T03:39:02;12.30;;;7.20;;
63444;SDS011;49573;47.682;9.170;2024-02-16T03:41:48;10.52;;;7.10;;
63444;SDS011;49573;47.682;9.170;2024-02-16T03:44:34;11.05;;;7.35;;
63444;SDS011;49573;47.682;9.170;2024-02-16T03:47:21;10.20;;;6.70;;
63444;SDS011;49573;47.682;9.170;2024-02-16T03:50:07;11.05;;;7.10;;
63444;SDS011;49573;47.682;9.170;2024-02-16T03:52:54;9.63;;;7.30;;
63444;SDS011;49573;47.682;9.170;2024-02-16T03:55:40;10.57;;;7.05;;
63444;SDS011;49573;47.682;9.170;2024-02-16T03:58:27;10.23;;;6.75;;
63444;SDS011;49573;47.682;9.170;2024-02-16T04:01:13;12.02;;;7.30;;
63444;SDS011;49573;47.682;9.170;2024-02-16T04:04:00;13.05;;;8.00;;
63444;SDS011;49573;47.682;9.170;2024-02-16T04:06:48;10.38;;;7.18;;
63444;SDS011;49573;47.682;9.170;2024-02-16T04:09:34;12.10;;;7.63;;
63444;SDS011;49573;47.682;9.170;2024-02-16T04:12:20;9.35;;;7.30;;
63444;SDS011;49573;47.682;9.170;2024-02-16T04:15:07;13.93;;;8.18;;
63444;SDS011;49573;47.682;9.170;2024-02-16T04:17:53;12.85;;;8.52;;
63444;SDS011;49573;47.682;9.170;2024-02-16T04:20:40;9.38;;;6.65;;
63444;SDS011;49573;47.682;9.170;2024-02-16T04:23:26;11.07;;;7.55;;
63444;SDS011;49573;47.682;9.170;2024-02-16T04:26:13;10.85;;;7.10;;
63444;SDS011;49573;47.682;9.170;2024-02-16T04:28:59;10.48;;;7.63;;
63444;SDS011;49573;47.682;9.170;2024-02-16T04:31:45;9.50;;;7.00;;
63444;SDS011;49573;47.682;9.170;2024-02-16T04:34:31;12.48;;;8.25;;
63444;SDS011;49573;47.682;9.170;2024-02-16T04:37:19;15.10;;;7.85;;
63444;SDS011;49573;47.682;9.170;2024-02-16T04:40:05;13.70;;;8.90;;
63444;SDS011;49573;47.682;9.170;2024-02-16T04:42:52;11.63;;;7.65;;
63444;SDS011;49573;47.682;9.170;2024-02-16T04:45:38;12.32;;;8.00;;
63444;SDS011;49573;47.682;9.170;2024-02-16T04:48:24;9.15;;;7.18;;
63444;SDS011;49573;47.682;9.170;2024-02-16T04:51:10;11.50;;;7.22;;
63444;SDS011;49573;47.682;9.170;2024-02-16T04:53:57;9.57;;;6.65;;
63444;SDS011;49573;47.682;9.170;2024-02-16T04:56:43;8.60;;;6.60;;
63444;SDS011;49573;47.682;9.170;2024-02-16T04:59:30;11.23;;;6.85;;
63444;SDS011;49573;47.682;9.170;2024-02-16T05:02:17;10.75;;;7.00;;
63444;SDS011;49573;47.682;9.170;2024-02-16T05:05:03;9.80;;;6.53;;
63444;SDS011;49573;47.682;9.170;2024-02-16T05:07:49;11.45;;;7.18;;
63444;SDS011;49573;47.682;9.170;2024-02-16T05:10:37;12.20;;;7.05;;
63444;SDS011;49573;47.682;9.170;2024-02-16T05:13:23;11.43;;;7.50;;
63444;SDS011;49573;47.682;9.170;2024-02-16T05:16:11;11.38;;;7.70;;
63444;SDS011;49573;47.682;9.170;2024-02-16T05:18:57;13.82;;;7.15;;
63444;SDS011;49573;47.682;9.170;2024-02-16T05:21:43;8.88;;;6.43;;
63444;SDS011;49573;47.682;9.170;2024-02-16T05:24:29;9.80;;;7.13;;
63444;SDS011;49573;47.682;9.170;2024-02-16T05:27:17;9.43;;;6.72;;
63444;SDS011;49573;47.682;9.170;2024-02-16T05:30:03;10.60;;;7.05;;
63444;SDS011;49573;47.682;9.170;2024-02-16T05:32:52;13.43;;;7.75;;
63444;SDS011;49573;47.682;9.170;2024-02-16T05:35:39;13.88;;;7.10;;
63444;SDS011;49573;47.682;9.170;2024-02-16T05:38:25;11.98;;;7.90;;
63444;SDS011;49573;47.682;9.170;2024-02-16T05:41:26;11.50;;;7.72;;
63444;SDS011;49573;47.682;9.170;2024-02-16T05:44:13;12.38;;;7.60;;
63444;SDS011;49573;47.682;9.170;2024-02-16T05:46:59;10.45;;;8.02;;
63444;SDS011;49573;47.682;9.170;2024-02-16T05:49:45;9.88;;;7.38;;
63444;SDS011;49573;47.682;9.170;2024-02-16T05:52:32;10.50;;;7.25;;
63444;SDS011;49573;47.682;9.170;2024-02-16T05:55:18;12.05;;;8.40;;
63444;SDS011;49573;47.682;9.170;2024-02-16T05:58:04;14.60;;;8.90;;
63444;SDS011;49573;47.682;9.170;2024-02-16T06:00:51;12.20;;;7.80;;
63444;SDS011;49573;47.682;9.170;2024-02-16T06:03:40;11.73;;;8.10;;
63444;SDS011;49573;47.682;9.170;2024-02-16T06:06:26;14.02;;;9.07;;
63444;SDS011;49573;47.682;9.170;2024-02-16T06:09:12;13.50;;;8.95;;
63444;SDS011;49573;47.682;9.170;2024-02-16T06:12:00;13.52;;;8.27;;
63444;SDS011;49573;47.682;9.170;2024-02-16T06:14:48;11.50;;;7.78;;
63444;SDS011;49573;47.682;9.170;2024-02-16T06:17:36;11.83;;;8.20;;
63444;SDS011;49573;47.682;9.170;2024-02-16T06:20:22;10.57;;;7.68;;
63444;SDS011;49573;47.682;9.170;2024-02-16T06:23:08;12.30;;;8.52;;
63444;SDS011;49573;47.682;9.170;2024-02-16T06:25:54;11.32;;;7.45;;
63444;SDS011;49573;47.682;9.170;2024-02-16T06:28:40;12.75;;;8.27;;
63444;SDS011;49573;47.682;9.170;2024-02-16T06:31:26;10.30;;;7.50;;
63444;SDS011;49573;47.682;9.170;2024-02-16T06:34:13;10.82;;;7.07;;
63444;SDS011;49573;47.682;9.170;2024-02-16T06:36:59;10.98;;;7.28;;
63444;SDS011;49573;47.682;9.170;2024-02-16T06:39:46;16.23;;;8.35;;
63444;SDS011;49573;47.682;9.170;2024-02-16T06:42:32;13.18;;;7.93;;
63444;SDS011;49573;47.682;9.170;2024-02-16T06:45:19;11.82;;;8.10;;
63444;SDS011;49573;47.682;9.170;2024-02-16T06:48:05;13.23;;;8.52;;
63444;SDS011;49573;47.682;9.170;2024-02-16T06:50:53;14.98;;;8.50;;
63444;SDS011;49573;47.682;9.170;2024-02-16T06:53:39;13.80;;;8.60;;
63444;SDS011;49573;47.682;9.170;2024-02-16T06:56:25;12.40;;;8.25;;
63444;SDS011;49573;47.682;9.170;2024-02-16T06:59:11;12.45;;;8.13;;
63444;SDS011;49573;47.682;9.170;2024-02-16T07:01:57;11.20;;;7.93;;
63444;SDS011;49573;47.682;9.170;2024-02-16T07:04:43;13.98;;;8.95;;
63444;SDS011;49573;47.682;9.170;2024-02-16T07:07:32;14.95;;;7.95;;
63444;SDS011;49573;47.682;9.170;2024-02-16T07:10:21;12.63;;;7.65;;
63444;SDS011;49573;47.682;9.170;2024-02-16T07:13:07;11.30;;;7.57;;
63444;SDS011;49573;47.682;9.170;2024-02-16T07:15:53;11.73;;;8.23;;
63444;SDS011;49573;47.682;9.170;2024-02-16T07:18:39;13.10;;;9.00;;
63444;SDS011;49573;47.682;9.170;2024-02-16T07:21:25;12.82;;;7.85;;
63444;SDS011;49573;47.682;9.170;2024-02-16T07:24:12;13.93;;;8.35;;
63444;SDS011;49573;47.682;9.170;2024-02-16T07:27:00;10.85;;;7.68;;
63444;SDS011;49573;47.682;9.170;2024-02-16T07:29:47;12.02;;;7.88;;
63444;SDS011;49573;47.682;9.170;2024-02-16T07:32:33;14.13;;;7.85;;
63444;SDS011;49573;47.682;9.170;2024-02-16T07:35:19;12.35;;;7.72;;
63444;SDS011;49573;47.682;9.170;2024-02-16T07:38:06;11.40;;;7.13;;
63444;SDS011;49573;47.682;9.170;2024-02-16T07:40:54;13.43;;;7.63;;
63444;SDS011;49573;47.682;9.170;2024-02-16T07:43:40;11.68;;;7.38;;
63444;SDS011;49573;47.682;9.170;2024-02-16T07:46:26;11.02;;;7.72;;
63444;SDS011;49573;47.682;9.170;2024-02-16T07:49:12;10.68;;;6.82;;
63444;SDS011;49573;47.682;9.170;2024-02-16T07:51:58;10.02;;;7.18;;
63444;SDS011;49573;47.682;9.170;2024-02-16T07:54:44;13.32;;;10.05;;
63444;SDS011;49573;47.682;9.170;2024-02-16T07:57:31;12.98;;;9.02;;
63444;SDS011;49573;47.682;9.170;2024-02-16T08:00:18;13.18;;;8.57;;
63444;SDS011;49573;47.682;9.170;2024-02-16T08:03:04;13.13;;;9.00;;
63444;SDS011;49573;47.682;9.170;2024-02-16T08:05:50;11.82;;;8.07;;
63444;SDS011;49573;47.682;9.170;2024-02-16T08:08:36;11.10;;;8.48;;
63444;SDS011;49573;47.682;9.170;2024-02-16T08:11:22;11.05;;;8.32;;
63444;SDS011;49573;47.682;9.170;2024-02-16T08:14:10;14.85;;;8.15;;
63444;SDS011;49573;47.682;9.170;2024-02-16T08:16:56;12.05;;;8.30;;
63444;SDS011;49573;47.682;9.170;2024-02-16T08:19:42;12.23;;;8.38;;
63444;SDS011;49573;47.682;9.170;2024-02-16T08:22:28;10.20;;;8.40;;
63444;SDS011;49573;47.682;9.170;2024-02-16T08:25:14;12.05;;;8.25;;
63444;SDS011;49573;47.682;9.170;2024-02-16T08:28:00;10.23;;;8.13;;
63444;SDS011;49573;47.682;9.170;2024-02-16T08:30:48;12.17;;;7.73;;
63444;SDS011;49573;47.682;9.170;2024-02-16T08:33:34;12.10;;;8.07;;
63444;SDS011;49573;47.682;9.170;2024-02-16T08:36:22;9.75;;;8.15;;
63444;SDS011;49573;47.682;9.170;2024-02-16T08:39:13;11.50;;;8.27;;
63444;SDS011;49573;47.682;9.170;2024-02-16T08:42:00;11.63;;;7.95;;
63444;SDS011;49573;47.682;9.170;2024-02-16T08:44:46;11.00;;;8.18;;
63444;SDS011;49573;47.682;9.170;2024-02-16T08:47:33;10.50;;;8.20;;
63444;SDS011;49573;47.682;9.170;2024-02-16T08:50:20;11.00;;;8.10;;
63444;SDS011;49573;47.682;9.170;2024-02-16T08:53:06;11.45;;;7.95;;
63444;SDS011;49573;47.682;9.170;2024-02-16T08:55:53;12.65;;;8.35;;
63444;SDS011;49573;47.682;9.170;2024-02-16T08:58:39;12.13;;;8.00;;
63444;SDS011;49573;47.682;9.170;2024-02-16T09:01:31;12.75;;;8.55;;
63444;SDS011;49573;47.682;9.170;2024-02-16T09:04:18;9.93;;;7.97;;
63444;SDS011;49573;47.682;9.170;2024-02-16T09:07:04;11.52;;;8.68;;
63444;SDS011;49573;47.682;9.170;2024-02-16T09:09:50;10.75;;;7.85;;
63444;SDS011;49573;47.682;9.170;2024-02-16T09:12:36;12.40;;;8.63;;
63444;SDS011;49573;47.682;9.170;2024-02-16T09:15:22;11.70;;;8.35;;
63444;SDS011;49573;47.682;9.170;2024-02-16T09:18:08;10.95;;;8.60;;
63444;SDS011;49573;47.682;9.170;2024-02-16T09:20:56;11.48;;;8.32;;
63444;SDS011;49573;47.682;9.170;2024-02-16T09:23:42;10.77;;;8.48;;
63444;SDS011;49573;47.682;9.170;2024-02-16T09:26:28;12.32;;;8.48;;
63444;SDS011;49573;47.682;9.170;2024-02-16T09:29:19;10.40;;;8.77;;
63444;SDS011;49573;47.682;9.170;2024-02-16T09:32:05;11.52;;;8.77;;
63444;SDS011;49573;47.682;9.170;2024-02-16T09:34:51;12.38;;;8.52;;
63444;SDS011;49573;47.682;9.170;2024-02-16T09:37:41;11.50;;;8.45;;
63444;SDS011;49573;47.682;9.170;2024-02-16T09:40:27;11.75;;;8.68;;
63444;SDS011;49573;47.682;9.170;2024-02-16T09:43:22;11.30;;;8.30;;
63444;SDS011;49573;47.682;9.170;2024-02-16T09:46:12;11.13;;;8.63;;
63444;SDS011;49573;47.682;9.170;2024-02-16T09:49:00;10.23;;;8.23;;
63444;SDS011;49573;47.682;9.170;2024-02-16T09:51:48;12.73;;;8.98;;
63444;SDS011;49573;47.682;9.170;2024-02-16T09:54:35;13.05;;;9.10;;
63444;SDS011;49573;47.682;9.170;2024-02-16T09:57:22;12.88;;;8.50;;
63444;SDS011;49573;47.682;9.170;2024-02-16T10:00:08;13.67;;;8.40;;
63444;SDS011;49573;47.682;9.170;2024-02-16T10:02:55;9.48;;;7.78;;
63444;SDS011;49573;47.682;9.170;2024-02-16T10:05:41;11.50;;;8.35;;
63444;SDS011;49573;47.682;9.170;2024-02-16T10:08:28;11.65;;;7.70;;
63444;SDS011;49573;47.682;9.170;2024-02-16T10:11:15;10.90;;;8.55;;
63444;SDS011;49573;47.682;9.170;2024-02-16T10:14:02;11.10;;;7.80;;
63444;SDS011;49573;47.682;9.170;2024-02-16T10:16:58;10.25;;;7.85;;
63444;SDS011;49573;47.682;9.170;2024-02-16T10:19:54;10.50;;;8.25;;
63444;SDS011;49573;47.682;9.170;2024-02-16T10:22:41;11.60;;;8.52;;
63444;SDS011;49573;47.682;9.170;2024-02-16T10:25:27;11.60;;;8.93;;
63444;SDS011;49573;47.682;9.170;2024-02-16T10:28:14;11.23;;;8.80;;
63444;SDS011;49573;47.682;9.170;2024-02-16T10:31:02;11.68;;;8.57;;
63444;SDS011;49573;47.682;9.170;2024-02-16T10:33:50;11.02;;;8.25;;
63444;SDS011;49573;47.682;9.170;2024-02-16T10:36:38;10.73;;;9.00;;
63444;SDS011;49573;47.682;9.170;2024-02-16T10:39:26;11.93;;;8.52;;
63444;SDS011;49573;47.682;9.170;2024-02-16T10:42:13;14.32;;;8.50;;
63444;SDS011;49573;47.682;9.170;2024-02-16T10:45:01;11.05;;;8.63;;
63444;SDS011;49573;47.682;9.170;2024-02-16T10:47:49;10.27;;;8.48;;
63444;SDS011;49573;47.682;9.170;2024-02-16T10:50:35;10.63;;;8.37;;
63444;SDS011;49573;47.682;9.170;2024-02-16T10:53:24;15.27;;;9.23;;
63444;SDS011;49573;47.682;9.170;2024-02-16T10:56:12;15.85;;;8.70;;
63444;SDS011;49573;47.682;9.170;2024-02-16T11:01:58;11.68;;;8.00;;
63444;SDS011;49573;47.682;9.170;2024-02-16T11:07:32;10.13;;;6.90;;
63444;SDS011;49573;47.682;9.170;2024-02-16T11:10:18;10.53;;;6.67;;
63444;SDS011;49573;47.682;9.170;2024-02-16T11:13:04;7.70;;;5.80;;
63444;SDS011;49573;47.682;9.170;2024-02-16T11:15:56;10.00;;;6.47;;
63444;SDS011;49573;47.682;9.170;2024-02-16T11:18:45;9.40;;;6.50;;
63444;SDS011;49573;47.682;9.170;2024-02-16T11:21:35;10.63;;;6.90;;
63444;SDS011;49573;47.682;9.170;2024-02-16T11:24:27;8.25;;;6.07;;
63444;SDS011;49573;47.682;9.170;2024-02-16T11:27:15;8.68;;;5.93;;
63444;SDS011;49573;47.682;9.170;2024-02-16T11:30:05;10.20;;;6.97;;
63444;SDS011;49573;47.682;9.170;2024-02-16T11:32:52;9.38;;;6.13;;
63444;SDS011;49573;47.682;9.170;2024-02-16T11:35:39;8.88;;;6.43;;
63444;SDS011;49573;47.682;9.170;2024-02-16T11:38:25;11.13;;;7.15;;
63444;SDS011;49573;47.682;9.170;2024-02-16T11:41:12;8.57;;;6.68;;
63444;SDS011;49573;47.682;9.170;2024-02-16T11:44:01;8.43;;;6.20;;
63444;SDS011;49573;47.682;9.170;2024-02-16T11:46:47;8.95;;;5.90;;
63444;SDS011;49573;47.682;9.170;2024-02-16T11:49:33;9.70;;;6.35;;
63444;SDS011;49573;47.682;9.170;2024-02-16T11:52:21;10.93;;;6.03;;
63444;SDS011;49573;47.682;9.170;2024-02-16T11:55:07;7.63;;;5.60;;
63444;SDS011;49573;47.682;9.170;2024-02-16T11:57:54;8.02;;;6.07;;
63444;SDS011;49573;47.682;9.170;2024-02-16T12:00:42;8.73;;;6.13;;
63444;SDS011;49573;47.682;9.170;2024-02-16T12:03:28;7.57;;;5.50;;
63444;SDS011;49573;47.682;9.170;2024-02-16T12:06:19;10.05;;;5.90;;
63444;SDS011;49573;47.682;9.170;2024-02-16T12:09:07;6.75;;;5.18;;
63444;SDS011;49573;47.682;9.170;2024-02-16T12:11:55;9.57;;;6.03;;
63444;SDS011;49573;47.682;9.170;2024-02-16T12:14:41;7.53;;;6.35;;
63444;SDS011;49573;47.682;9.170;2024-02-16T12:17:27;6.32;;;5.70;;
63444;SDS011;49573;47.682;9.170;2024-02-16T12:20:13;6.57;;;5.85;;
63444;SDS011;49573;47.682;9.170;2024-02-16T12:22:59;6.65;;;5.63;;
63444;SDS011;49573;47.682;9.170;2024-02-16T12:25:57;6.90;;;5.70;;
63444;SDS011;49573;47.682;9.170;2024-02-16T12:28:43;7.47;;;5.35;;
63444;SDS011;49573;47.682;9.170;2024-02-16T12:31:29;7.15;;;5.78;;
63444;SDS011;49573;47.682;9.170;2024-02-16T12:34:16;7.07;;;5.00;;
63444;SDS011;49573;47.682;9.170;2024-02-16T12:37:03;6.65;;;5.78;;
63444;SDS011;49573;47.682;9.170;2024-02-16T12:39:50;7.80;;;5.88;;
63444;SDS011;49573;47.682;9.170;2024-02-16T12:42:37;6.85;;;6.20;;
63444;SDS011;49573;47.682;9.170;2024-02-16T12:45:23;6.13;;;4.93;;
63444;SDS011;49573;47.682;9.170;2024-02-16T12:48:09;6.97;;;5.05;;
63444;SDS011;49573;47.682;9.170;2024-02-16T12:50:58;7.30;;;4.90;;
63444;SDS011;49573;47.682;9.170;2024-02-16T12:53:44;9.00;;;4.50;;
63444;SDS011;49573;47.682;9.170;2024-02-16T12:56:30;7.07;;;4.22;;
63444;SDS011;49573;47.682;9.170;2024-02-16T12:59:20;9.30;;;4.60;;
63444;SDS011;49573;47.682;9.170;2024-02-16T13:02:06;7.38;;;4.03;;
63444;SDS011;49573;47.682;9.170;2024-02-16T13:04:52;7.50;;;3.70;;
63444;SDS011;49573;47.682;9.170;2024-02-16T13:10:27;8.13;;;3.72;;
63444;SDS011;49573;47.682;9.170;2024-02-16T13:13:13;5.80;;;3.33;;
63444;SDS011;49573;47.682;9.170;2024-02-16T13:16:00;4.63;;;3.38;;
63444;SDS011;49573;47.682;9.170;2024-02-16T13:18:46;6.85;;;3.83;;
63444;SDS011;49573;47.682;9.170;2024-02-16T13:21:32;6.18;;;3.40;;
63444;SDS011;49573;47.682;9.170;2024-02-16T13:24:18;5.88;;;3.40;;
63444;SDS011;49573;47.682;9.170;2024-02-16T13:27:04;5.47;;;2.78;;
63444;SDS011;49573;47.682;9.170;2024-02-16T13:32:38;5.85;;;2.95;;
63444;SDS011;49573;47.682;9.170;2024-02-16T13:35:25;3.72;;;2.47;;
63444;SDS011;49573;47.682;9.170;2024-02-16T13:40:59;6.20;;;2.70;;
63444;SDS011;49573;47.682;9.170;2024-02-16T13:43:45;5.75;;;2.80;;
63444;SDS011;49573;47.682;9.170;2024-02-16T13:46:31;4.85;;;2.30;;
63444;SDS011;49573;47.682;9.170;2024-02-16T13:49:19;6.00;;;2.72;;
63444;SDS011;49573;47.682;9.170;2024-02-16T13:52:05;7.45;;;3.00;;
63444;SDS011;49573;47.682;9.170;2024-02-16T13:54:54;5.93;;;2.75;;
63444;SDS011;49573;47.682;9.170;2024-02-16T13:57:40;5.93;;;2.42;;
63444;SDS011;49573;47.682;9.170;2024-02-16T14:00:26;5.68;;;2.97;;
63444;SDS011;49573;47.682;9.170;2024-02-16T14:03:12;9.63;;;2.90;;
63444;SDS011;49573;47.682;9.170;2024-02-16T14:06:01;4.15;;;2.53;;
63444;SDS011;49573;47.682;9.170;2024-02-16T14:08:47;5.63;;;2.65;;
63444;SDS011;49573;47.682;9.170;2024-02-16T14:11:34;6.88;;;2.80;;
63444;SDS011;49573;47.682;9.170;2024-02-16T14:14:21;7.82;;;3.00;;
63444;SDS011;49573;47.682;9.170;2024-02-16T14:17:07;5.93;;;2.60;;
63444;SDS011;49573;47.682;9.170;2024-02-16T14:19:53;7.10;;;2.50;;
63444;SDS011;49573;47.682;9.170;2024-02-16T14:22:40;6.50;;;2.63;;
63444;SDS011;49573;47.682;9.170;2024-02-16T14:25:26;5.80;;;2.63;;
63444;SDS011;49573;47.682;9.170;2024-02-16T14:28:12;5.80;;;3.00;;
63444;SDS011;49573;47.682;9.170;2024-02-16T14:30:58;5.53;;;2.30;;
63444;SDS011;49573;47.682;9.170;2024-02-16T14:33:44;7.77;;;3.27;;
63444;SDS011;49573;47.682;9.170;2024-02-16T14:36:31;6.30;;;2.90;;
63444;SDS011;49573;47.682;9.170;2024-02-16T14:39:18;6.38;;;2.47;;
63444;SDS011;49573;47.682;9.170;2024-02-16T14:42:04;4.28;;;2.65;;
63444;SDS011;49573;47.682;9.170;2024-02-16T14:44:51;5.47;;;2.55;;
63444;SDS011;49573;47.682;9.170;2024-02-16T14:47:37;4.17;;;2.53;;
63444;SDS011;49573;47.682;9.170;2024-02-16T14:50:23;5.97;;;2.63;;
63444;SDS011;49573;47.682;9.170;2024-02-16T14:53:10;5.78;;;2.70;;
63444;SDS011;49573;47.682;9.170;2024-02-16T14:55:57;5.63;;;3.13;;
63444;SDS011;49573;47.682;9.170;2024-02-16T14:58:43;5.63;;;2.97;;
63444;SDS011;49573;47.682;9.170;2024-02-16T15:01:30;5.60;;;2.95;;
63444;SDS011;49573;47.682;9.170;2024-02-16T15:04:16;5.55;;;2.45;;
63444;SDS011;49573;47.682;9.170;2024-02-16T15:07:02;5.50;;;2.40;;
63444;SDS011;49573;47.682;9.170;2024-02-16T15:09:49;6.13;;;2.17;;
63444;SDS011;49573;47.682;9.170;2024-02-16T15:12:36;5.77;;;2.60;;
63444;SDS011;49573;47.682;9.170;2024-02-16T15:15:25;7.60;;;2.90;;
63444;SDS011;49573;47.682;9.170;2024-02-16T15:18:11;5.70;;;2.90;;
63444;SDS011;49573;47.682;9.170;2024-02-16T15:20:57;4.88;;;2.65;;
63444;SDS011;49573;47.682;9.170;2024-02-16T15:23:43;5.63;;;2.50;;
63444;SDS011;49573;47.682;9.170;2024-02-16T15:26:29;5.73;;;2.60;;
63444;SDS011;49573;47.682;9.170;2024-02-16T15:29:17;7.67;;;2.87;;
63444;SDS011;49573;47.682;9.170;2024-02-16T15:32:03;4.38;;;2.50;;
63444;SDS011;49573;47.682;9.170;2024-02-16T15:34:50;5.40;;;2.50;;
63444;SDS011;49573;47.682;9.170;2024-02-16T15:37:38;4.97;;;2.60;;
63444;SDS011;49573;47.682;9.170;2024-02-16T15:43:12;6.80;;;2.95;;
63444;SDS011;49573;47.682;9.170;2024-02-16T15:45:59;4.32;;;2.20;;
63444;SDS011;49573;47.682;9.170;2024-02-16T15:48:45;5.18;;;2.40;;
63444;SDS011;49573;47.682;9.170;2024-02-16T15:51:33;4.43;;;2.38;;
63444;SDS011;49573;47.682;9.170;2024-02-16T15:54:19;5.50;;;2.70;;
63444;SDS011;49573;47.682;9.170;2024-02-16T15:57:11;5.55;;;2.42;;
63444;SDS011;49573;47.682;9.170;2024-02-16T15:59:57;6.50;;;2.53;;
63444;SDS011;49573;47.682;9.170;2024-02-16T16:02:45;6.13;;;2.45;;
63444;SDS011;49573;47.682;9.170;2024-02-16T16:05:31;5.90;;;2.47;;
63444;SDS011;49573;47.682;9.170;2024-02-16T16:08:19;5.20;;;2.47;;
63444;SDS011;49573;47.682;9.170;2024-02-16T16:11:05;4.05;;;2.30;;
63444;SDS011;49573;47.682;9.170;2024-02-16T16:13:51;5.63;;;2.40;;
63444;SDS011;49573;47.682;9.170;2024-02-16T16:16:38;5.90;;;2.65;;
63444;SDS011;49573;47.682;9.170;2024-02-16T16:19:25;3.87;;;2.40;;
63444;SDS011;49573;47.682;9.170;2024-02-16T16:22:11;5.03;;;2.38;;
63444;SDS011;49573;47.682;9.170;2024-02-16T16:24:58;6.25;;;2.53;;
63444;SDS011;49573;47.682;9.170;2024-02-16T16:27:45;3.60;;;2.40;;
63444;SDS011;49573;47.682;9.170;2024-02-16T16:30:34;4.38;;;2.28;;
63444;SDS011;49573;47.682;9.170;2024-02-16T16:33:20;5.30;;;2.37;;
63444;SDS011;49573;47.682;9.170;2024-02-16T16:36:08;5.18;;;2.40;;
63444;SDS011;49573;47.682;9.170;2024-02-16T16:38:59;5.63;;;2.25;;
63444;SDS011;49573;47.682;9.170;2024-02-16T16:41:45;6.87;;;2.37;;
63444;SDS011;49573;47.682;9.170;2024-02-16T16:44:31;4.22;;;2.30;;
63444;SDS011;49573;47.682;9.170;2024-02-16T16:47:17;5.40;;;2.17;;
63444;SDS011;49573;47.682;9.170;2024-02-16T16:50:04;4.57;;;2.30;;
63444;SDS011;49573;47.682;9.170;2024-02-16T16:52:54;6.47;;;2.20;;
63444;SDS011;49573;47.682;9.170;2024-02-16T16:55:40;4.35;;;2.35;;